Cleveland, Ohio
Traffic Map
Current Weather Conditions
Cleveland, Ohio
Broken Clouds
Broken Clouds
24°
Feels Like: 24°
Wind Chill: 24° Ceiling: 8500
Heat Index: 24° Visibility: 10mi
Dew Point: 21° Wind: 6mph
Humidity: 82% Direction: 340° (NNW)
Pressure: 29.98in Gusts: 0mph
Raw Report DataKBKL 211753Z 34005KT 10SM SCT040 BKN085 24/21 A2998 RMK AO2 SLP149 T02440211 10244 20217 58005
Traffic Incident Summary
Active as of:
Severity:
Category:
InformationThere was an issue retrieving the traffic information for this location. Please try a different location or try again shortly.
Advertisements
Track Severe Weather on mobile